Terminal Aerodrome Forecast
Issued by NWS Lake Charles, LA

Home | Current Version | Previous Version | Text Only | Print | Product List | Glossary On
Versions: 1 2 3 4 5 6 7 8 9 10 11 12 13
811
FTUS44 KLCH 210858 AAA
TAFLFT
TAF AMD
KLFT 210858Z 2109/2206 VRB03KT P6SM FEW015
     FM211000 15004KT 5SM BR SCT015
      TEMPO 2110/2114 3SM BR BKN007
     FM211500 16010KT P6SM FEW015 OVC025
     FM211700 17012G18KT P6SM SCT020 BKN035
     FM220100 16008KT P6SM VCSH BKN025=

USA.gov is the U.S. government's official web portal to all federal, state and local government web resources and services.